ジャージー島 の空港の天気 - METARとTAF

ジャージー空港 ( EGJJ / JER ) - ジャージー島 ジャージー島
飛行場実況気象(Metar)
観測時間11/24 17:50 GMT (11/24 17:50 UTC)
風向・風速南南東 7m/s
視程10km以上
天気現象
なし
気温11℃
湿度82%
気圧1013hPa
METAREGJJ 241750Z 16014KT CAVOK 11/08 Q1013
過去の天気等 Google飛行場航空写真 Wunderground天気予報

過去48時間のMETAR

飛行場予報(TAF)
発表時間: 11/24 16:59 GMT (11/24 16:59 UTC)
予報対象時間: 24日18時 GMT ~ 25日3時 GMT
風向・風速南南東 8m/s
視程10km以上
少しの雲 雲底高度 550m
24日19時 GMT ~ 25日3時 GMT に一時的に
全天の8割程度の雲 雲底高度 550m
24日22時 GMT ~ 25日3時 GMT に 確率 40% で一時的に
全天の8割程度の雲 雲底高度 300m
25日1時 GMT ~ 25日3時 GMT に 確率 30% で一時的に
全天の8割程度の雲 雲底高度 150m
TAF EGJJ 241659Z 2418/2503 16015KT 9999 FEW018
TEMPO 2419/2503 BKN018
PROB40 TEMPO 2422/2503 BKN010
PROB30 TEMPO 2501/2503 BKN005